sensor_id;sensor_type;location;lat;lon;timestamp;temperature;humidity
71551;DHT22;59367;48.414;9.872;2023-04-06T00:00:18;2.526512146;55.14831543
71551;DHT22;59367;48.414;9.872;2023-04-06T00:01:26;2.483787537;55.28106689
71551;DHT22;59367;48.414;9.872;2023-04-06T00:02:33;2.513160706;55.34973145
71551;DHT22;59367;48.414;9.872;2023-04-06T00:03:40;2.483787537;55.36499023
71551;DHT22;59367;48.414;9.872;2023-04-06T00:04:47;2.470436096;55.63049316
71551;DHT22;59367;48.414;9.872;2023-04-06T00:05:55;2.497138977;55.34667969
71551;DHT22;59367;48.414;9.872;2023-04-06T00:07:02;2.483787537;55.15289307
71551;DHT22;59367;48.414;9.872;2023-04-06T00:08:10;2.470436096;55.42907715
71551;DHT22;59367;48.414;9.872;2023-04-06T00:09:17;2.457084656;55.36346436
71551;DHT22;59367;48.414;9.872;2023-04-06T00:10:24;2.441062927;55.37261963
71551;DHT22;59367;48.414;9.872;2023-04-06T00:11:31;2.414360046;55.25970459
71551;DHT22;59367;48.414;9.872;2023-04-06T00:12:38;2.427711487;55.06134033
71551;DHT22;59367;48.414;9.872;2023-04-06T00:13:46;2.414360046;55.15441895
71551;DHT22;59367;48.414;9.872;2023-04-06T00:14:53;2.384986877;55.47027588
71551;DHT22;59367;48.414;9.872;2023-04-06T00:16:00;2.384986877;55.36346436
71551;DHT22;59367;48.414;9.872;2023-04-06T00:17:07;2.384986877;55.27801514
71551;DHT22;59367;48.414;9.872;2023-04-06T00:18:14;2.358280182;55.24139404
71551;DHT22;59367;48.414;9.872;2023-04-06T00:19:22;2.342258453;55.2734375
71551;DHT22;59367;48.414;9.872;2023-04-06T00:20:29;2.358280182;55.40161133
71551;DHT22;59367;48.414;9.872;2023-04-06T00:21:36;2.342258453;55.46417236
71551;DHT22;59367;48.414;9.872;2023-04-06T00:22:44;2.328907013;55.56945801
71551;DHT22;59367;48.414;9.872;2023-04-06T00:23:51;2.315555573;55.45043945
71551;DHT22;59367;48.414;9.872;2023-04-06T00:24:58;2.315555573;55.53741455
71551;DHT22;59367;48.414;9.872;2023-04-06T00:26:05;2.259479523;55.59234619
71551;DHT22;59367;48.414;9.872;2023-04-06T00:27:13;2.272830963;55.53894043
71551;DHT22;59367;48.414;9.872;2023-04-06T00:28:20;2.259479523;55.72967529
71551;DHT22;59367;48.414;9.872;2023-04-06T00:29:27;2.243457794;55.63354492
71551;DHT22;59367;48.414;9.872;2023-04-06T00:30:34;2.259479523;55.51605225
71551;DHT22;59367;48.414;9.872;2023-04-06T00:31:41;2.214084625;55.25512695
71551;DHT22;59367;48.414;9.872;2023-04-06T00:32:48;2.214084625;55.12695313
71551;DHT22;59367;48.414;9.872;2023-04-06T00:33:56;2.171360016;55.26885986
71551;DHT22;59367;48.414;9.872;2023-04-06T00:35:03;2.171360016;55.03540039
71551;DHT22;59367;48.414;9.872;2023-04-06T00:36:10;2.184711456;54.97436523
71551;DHT22;59367;48.414;9.872;2023-04-06T00:37:18;2.171360016;55.14373779
71551;DHT22;59367;48.414;9.872;2023-04-06T00:38:25;2.144657135;55.09490967
71551;DHT22;59367;48.414;9.872;2023-04-06T00:39:32;2.128635406;55.57403564
71551;DHT22;59367;48.414;9.872;2023-04-06T00:40:39;2.088577271;55.82275391
71551;DHT22;59367;48.414;9.872;2023-04-06T00:41:50;2.088577271;55.72967529
71551;DHT22;59367;48.414;9.872;2023-04-06T00:42:58;2.072555542;55.35430908
71551;DHT22;59367;48.414;9.872;2023-04-06T00:44:05;2.072555542;55.15899658
71551;DHT22;59367;48.414;9.872;2023-04-06T00:45:13;2.072555542;55.09796143
71551;DHT22;59367;48.414;9.872;2023-04-06T00:46:21;2.045852661;54.6875
71551;DHT22;59367;48.414;9.872;2023-04-06T00:47:28;2.059204102;54.73175049
71551;DHT22;59367;48.414;9.872;2023-04-06T00:48:36;2.016479492;54.65393066
71551;DHT22;59367;48.414;9.872;2023-04-06T00:49:43;2.003128052;54.86450195
71551;DHT22;59367;48.414;9.872;2023-04-06T00:50:50;1.960403442;55.09338379
71551;DHT22;59367;48.414;9.872;2023-04-06T00:51:58;1.960403442;55.16662598
71551;DHT22;59367;48.414;9.872;2023-04-06T00:53:05;1.947052002;55.07049561
71551;DHT22;59367;48.414;9.872;2023-04-06T00:54:12;1.960403442;55.05828857
71551;DHT22;59367;48.414;9.872;2023-04-06T00:55:20;1.947052002;55.01556396
71551;DHT22;59367;48.414;9.872;2023-04-06T00:56:27;1.931030273;55.1940918
71551;DHT22;59367;48.414;9.872;2023-04-06T00:57:34;1.874950409;55.4107666
71551;DHT22;59367;48.414;9.872;2023-04-06T00:58:42;1.890975952;55.50994873
71551;DHT22;59367;48.414;9.872;2023-04-06T00:59:49;1.861598969;55.50537109
71551;DHT22;59367;48.414;9.872;2023-04-06T01:00:57;1.848247528;55.43823242
71551;DHT22;59367;48.414;9.872;2023-04-06T01:02:04;1.834896088;55.43670654
71551;DHT22;59367;48.414;9.872;2023-04-06T01:03:12;1.818874359;55.37261963
71551;DHT22;59367;48.414;9.872;2023-04-06T01:04:19;1.792171478;55.40008545
71551;DHT22;59367;48.414;9.872;2023-04-06T01:05:26;1.77614975;55.5557251
71551;DHT22;59367;48.414;9.872;2023-04-06T01:06:34;1.7200737;55.82580566
71551;DHT22;59367;48.414;9.872;2023-04-06T01:07:41;1.7200737;56.05010986
71551;DHT22;59367;48.414;9.872;2023-04-06T01:08:48;1.70672226;56.31561279
71551;DHT22;59367;48.414;9.872;2023-04-06T01:09:56;1.680019379;56.3949585
71551;DHT22;59367;48.414;9.872;2023-04-06T01:11:03;1.680019379;56.640625
71551;DHT22;59367;48.414;9.872;2023-04-06T01:12:10;1.66399765;56.57653809
71551;DHT22;59367;48.414;9.872;2023-04-06T01:13:18;1.637294769;56.81610107
71551;DHT22;59367;48.414;9.872;2023-04-06T01:14:25;1.621269226;56.78253174
71551;DHT22;59367;48.414;9.872;2023-04-06T01:15:33;1.594566345;56.74591064
71551;DHT22;59367;48.414;9.872;2023-04-06T01:16:40;1.581214905;56.73370361
71551;DHT22;59367;48.414;9.872;2023-04-06T01:17:48;1.551841736;56.74133301
71551;DHT22;59367;48.414;9.872;2023-04-06T01:18:55;1.551841736;56.79321289
71551;DHT22;59367;48.414;9.872;2023-04-06T01:20:02;1.551841736;56.83746338
71551;DHT22;59367;48.414;9.872;2023-04-06T01:21:10;1.509117126;56.83898926
71551;DHT22;59367;48.414;9.872;2023-04-06T01:22:20;1.495765686;56.86035156
71551;DHT22;59367;48.414;9.872;2023-04-06T01:23:27;1.482414246;56.92138672
71551;DHT22;59367;48.414;9.872;2023-04-06T01:24:34;1.453041077;57.08007813
71551;DHT22;59367;48.414;9.872;2023-04-06T01:25:42;1.466392517;57.1395874
71551;DHT22;59367;48.414;9.872;2023-04-06T01:26:49;1.439689636;57.24487305
71551;DHT22;59367;48.414;9.872;2023-04-06T01:27:56;1.426338196;57.65838623
71551;DHT22;59367;48.414;9.872;2023-04-06T01:29:04;1.426338196;57.56988525
71551;DHT22;59367;48.414;9.872;2023-04-06T01:30:12;1.396965027;57.47833252
71551;DHT22;59367;48.414;9.872;2023-04-06T01:31:19;1.396965027;57.56530762
71551;DHT22;59367;48.414;9.872;2023-04-06T01:32:27;1.410316467;57.52563477
71551;DHT22;59367;48.414;9.872;2023-04-06T01:33:34;1.383613586;57.55310059
71551;DHT22;59367;48.414;9.872;2023-04-06T01:34:41;1.396965027;57.98187256
71551;DHT22;59367;48.414;9.872;2023-04-06T01:35:48;1.396965027;58.31756592
71551;DHT22;59367;48.414;9.872;2023-04-06T01:36:56;1.396965027;58.50524902
71551;DHT22;59367;48.414;9.872;2023-04-06T01:38:03;1.410316467;58.3404541
71551;DHT22;59367;48.414;9.872;2023-04-06T01:39:10;1.410316467;58.13293457
71551;DHT22;59367;48.414;9.872;2023-04-06T01:40:17;1.426338196;57.82775879
71551;DHT22;59367;48.414;9.872;2023-04-06T01:41:25;1.439689636;57.66143799
71551;DHT22;59367;48.414;9.872;2023-04-06T01:42:32;1.466392517;58.06121826
71551;DHT22;59367;48.414;9.872;2023-04-06T01:43:39;1.495765686;58.04595947
71551;DHT22;59367;48.414;9.872;2023-04-06T01:44:46;1.482414246;57.6171875
71551;DHT22;59367;48.414;9.872;2023-04-06T01:45:53;1.509117126;57.82165527
71551;DHT22;59367;48.414;9.872;2023-04-06T01:47:01;1.509117126;57.74078369
71551;DHT22;59367;48.414;9.872;2023-04-06T01:48:08;1.509117126;57.53326416
71551;DHT22;59367;48.414;9.872;2023-04-06T01:49:16;1.538490295;57.64465332
71551;DHT22;59367;48.414;9.872;2023-04-06T01:50:23;1.525138855;57.68432617
71551;DHT22;59367;48.414;9.872;2023-04-06T01:51:30;1.509117126;57.35473633
71551;DHT22;59367;48.414;9.872;2023-04-06T01:52:37;1.509117126;57.43255615
71551;DHT22;59367;48.414;9.872;2023-04-06T01:53:44;1.525138855;57.47528076
71551;DHT22;59367;48.414;9.872;2023-04-06T01:54:52;1.538490295;57.33795166
71551;DHT22;59367;48.414;9.872;2023-04-06T01:55:59;1.565193176;57.44171143
71551;DHT22;59367;48.414;9.872;2023-04-06T01:57:06;1.551841736;57.37915039
71551;DHT22;59367;48.414;9.872;2023-04-06T01:58:13;1.525138855;57.2555542
71551;DHT22;59367;48.414;9.872;2023-04-06T01:59:20;1.525138855;57.38677979
71551;DHT22;59367;48.414;9.872;2023-04-06T02:00:28;1.525138855;57.56530762
71551;DHT22;59367;48.414;9.872;2023-04-06T02:01:35;1.495765686;57.47070313
71551;DHT22;59367;48.414;9.872;2023-04-06T02:02:42;1.509117126;57.3135376
71551;DHT22;59367;48.414;9.872;2023-04-06T02:03:49;1.509117126;57.25402832
71551;DHT22;59367;48.414;9.872;2023-04-06T02:04:56;1.495765686;57.16400146
71551;DHT22;59367;48.414;9.872;2023-04-06T02:06:04;1.482414246;57.20062256
71551;DHT22;59367;48.414;9.872;2023-04-06T02:07:11;1.453041077;57.34558105
71551;DHT22;59367;48.414;9.872;2023-04-06T02:08:18;1.482414246;57.34100342
71551;DHT22;59367;48.414;9.872;2023-04-06T02:09:25;1.453041077;57.49359131
71551;DHT22;59367;48.414;9.872;2023-04-06T02:10:33;1.439689636;57.35473633
71551;DHT22;59367;48.414;9.872;2023-04-06T02:11:40;1.426338196;57.46002197
71551;DHT22;59367;48.414;9.872;2023-04-06T02:12:47;1.410316467;57.57598877
71551;DHT22;59367;48.414;9.872;2023-04-06T02:13:55;1.396965027;57.60345459
71551;DHT22;59367;48.414;9.872;2023-04-06T02:15:02;1.383613586;57.80944824
71551;DHT22;59367;48.414;9.872;2023-04-06T02:16:10;1.396965027;57.862854
71551;DHT22;59367;48.414;9.872;2023-04-06T02:17:17;1.410316467;58.05206299
71551;DHT22;59367;48.414;9.872;2023-04-06T02:18:24;1.367588043;58.10546875
71551;DHT22;59367;48.414;9.872;2023-04-06T02:19:31;1.354236603;58.01544189
71551;DHT22;59367;48.414;9.872;2023-04-06T02:20:38;1.354236603;57.82775879
71551;DHT22;59367;48.414;9.872;2023-04-06T02:21:45;1.340885162;58.07342529
71551;DHT22;59367;48.414;9.872;2023-04-06T02:22:53;1.354236603;58.47167969
71551;DHT22;59367;48.414;9.872;2023-04-06T02:24:00;1.367588043;58.50067139
71551;DHT22;59367;48.414;9.872;2023-04-06T02:25:08;1.354236603;58.203125
71551;DHT22;59367;48.414;9.872;2023-04-06T02:26:15;1.354236603;58.24432373
71551;DHT22;59367;48.414;9.872;2023-04-06T02:27:22;1.354236603;57.96508789
71551;DHT22;59367;48.414;9.872;2023-04-06T02:28:29;1.367588043;57.56072998
71551;DHT22;59367;48.414;9.872;2023-04-06T02:29:36;1.367588043;57.26470947
71551;DHT22;59367;48.414;9.872;2023-04-06T02:30:44;1.367588043;57.15484619
71551;DHT22;59367;48.414;9.872;2023-04-06T02:31:51;1.383613586;57.2052002
71551;DHT22;59367;48.414;9.872;2023-04-06T02:32:58;1.367588043;57.50274658
71551;DHT22;59367;48.414;9.872;2023-04-06T02:34:05;1.367588043;57.52105713
71551;DHT22;59367;48.414;9.872;2023-04-06T02:35:13;1.367588043;57.63092041
71551;DHT22;59367;48.414;9.872;2023-04-06T02:36:20;1.383613586;57.89031982
71551;DHT22;59367;48.414;9.872;2023-04-06T02:37:27;1.340885162;57.73620605
71551;DHT22;59367;48.414;9.872;2023-04-06T02:38:34;1.340885162;57.80487061
71551;DHT22;59367;48.414;9.872;2023-04-06T02:39:41;1.311511993;57.68127441
71551;DHT22;59367;48.414;9.872;2023-04-06T02:40:48;1.340885162;57.85369873
71551;DHT22;59367;48.414;9.872;2023-04-06T02:41:56;1.327533722;57.96051025
71551;DHT22;59367;48.414;9.872;2023-04-06T02:43:03;1.311511993;57.78198242
71551;DHT22;59367;48.414;9.872;2023-04-06T02:44:11;1.340885162;57.46002197
71551;DHT22;59367;48.414;9.872;2023-04-06T02:45:18;1.311511993;56.92901611
71551;DHT22;59367;48.414;9.872;2023-04-06T02:46:25;1.327533722;56.97937012
71551;DHT22;59367;48.414;9.872;2023-04-06T02:47:32;1.311511993;56.79168701
71551;DHT22;59367;48.414;9.872;2023-04-06T02:48:40;1.298160553;56.59637451
71551;DHT22;59367;48.414;9.872;2023-04-06T02:49:47;1.271457672;56.53991699
71551;DHT22;59367;48.414;9.872;2023-04-06T02:50:54;1.271457672;56.49871826
71551;DHT22;59367;48.414;9.872;2023-04-06T02:52:01;1.255435944;56.59179688
71551;DHT22;59367;48.414;9.872;2023-04-06T02:53:09;1.212711334;56.69250488
71551;DHT22;59367;48.414;9.872;2023-04-06T02:54:16;1.212711334;56.79779053
71551;DHT22;59367;48.414;9.872;2023-04-06T02:55:23;1.172657013;56.69708252
71551;DHT22;59367;48.414;9.872;2023-04-06T02:56:30;1.172657013;56.67724609
71551;DHT22;59367;48.414;9.872;2023-04-06T02:57:37;1.143283844;56.55517578
71551;DHT22;59367;48.414;9.872;2023-04-06T02:58:45;1.156635284;56.44989014
71551;DHT22;59367;48.414;9.872;2023-04-06T02:59:52;1.127262115;56.50024414
71551;DHT22;59367;48.414;9.872;2023-04-06T03:00:59;1.084533691;56.590271
71551;DHT22;59367;48.414;9.872;2023-04-06T03:02:06;1.055160522;56.73370361
71551;DHT22;59367;48.414;9.872;2023-04-06T03:03:13;1.041809082;56.77337646
71551;DHT22;59367;48.414;9.872;2023-04-06T03:04:21;1.041809082;56.99005127
71551;DHT22;59367;48.414;9.872;2023-04-06T03:05:28;0.999084473;57.11212158
71551;DHT22;59367;48.414;9.872;2023-04-06T03:06:35;0.959030151;57.3638916
71551;DHT22;59367;48.414;9.872;2023-04-06T03:07:42;0.959030151;57.72094727
71551;DHT22;59367;48.414;9.872;2023-04-06T03:08:49;0.959030151;57.78961182
71551;DHT22;59367;48.414;9.872;2023-04-06T03:09:57;0.943008423;57.70721436
71551;DHT22;59367;48.414;9.872;2023-04-06T03:11:04;0.916305542;57.87200928
71551;DHT22;59367;48.414;9.872;2023-04-06T03:12:11;0.916305542;57.81402588
71551;DHT22;59367;48.414;9.872;2023-04-06T03:13:18;0.900283813;57.66143799
71551;DHT22;59367;48.414;9.872;2023-04-06T03:14:27;0.886932373;57.65838623
71551;DHT22;59367;48.414;9.872;2023-04-06T03:15:35;0.900283813;57.7911377
71551;DHT22;59367;48.414;9.872;2023-04-06T03:16:42;0.873577118;57.85522461
71551;DHT22;59367;48.414;9.872;2023-04-06T03:17:49;0.886932373;57.86743164
71551;DHT22;59367;48.414;9.872;2023-04-06T03:18:56;0.844203949;57.90100098
71551;DHT22;59367;48.414;9.872;2023-04-06T03:20:04;0.830852509;57.9788208
71551;DHT22;59367;48.414;9.872;2023-04-06T03:21:11;0.817501068;58.23364258
71551;DHT22;59367;48.414;9.872;2023-04-06T03:22:19;0.830852509;58.34350586
71551;DHT22;59367;48.414;9.872;2023-04-06T03:23:26;0.788127899;58.40759277
71551;DHT22;59367;48.414;9.872;2023-04-06T03:24:33;0.788127899;58.43658447
71551;DHT22;59367;48.414;9.872;2023-04-06T03:25:40;0.774776459;58.89892578
71551;DHT22;59367;48.414;9.872;2023-04-06T03:26:48;0.74540329;59.2010498
71551;DHT22;59367;48.414;9.872;2023-04-06T03:27:55;0.774776459;59.53369141
71551;DHT22;59367;48.414;9.872;2023-04-06T03:29:02;0.761425018;59.6496582
71551;DHT22;59367;48.414;9.872;2023-04-06T03:30:10;0.74540329;59.90447998
71551;DHT22;59367;48.414;9.872;2023-04-06T03:31:18;0.761425018;59.82818604
71551;DHT22;59367;48.414;9.872;2023-04-06T03:32:25;0.74540329;59.45129395
71551;DHT22;59367;48.414;9.872;2023-04-06T03:33:32;0.74540329;59.26055908
71551;DHT22;59367;48.414;9.872;2023-04-06T03:34:39;0.761425018;59.42382813
71551;DHT22;59367;48.414;9.872;2023-04-06T03:35:47;0.788127899;59.43450928
71551;DHT22;59367;48.414;9.872;2023-04-06T03:36:54;0.774776459;59.13696289
71551;DHT22;59367;48.414;9.872;2023-04-06T03:38:01;0.774776459;59.08966064
71551;DHT22;59367;48.414;9.872;2023-04-06T03:39:08;0.788127899;58.83331299
71551;DHT22;59367;48.414;9.872;2023-04-06T03:40:16;0.788127899;58.75244141
71551;DHT22;59367;48.414;9.872;2023-04-06T03:41:23;0.804149628;58.59680176
71551;DHT22;59367;48.414;9.872;2023-04-06T03:42:30;0.817501068;58.42132568
71551;DHT22;59367;48.414;9.872;2023-04-06T03:43:37;0.804149628;58.36181641
71551;DHT22;59367;48.414;9.872;2023-04-06T03:44:45;0.788127899;58.48693848
71551;DHT22;59367;48.414;9.872;2023-04-06T03:45:52;0.788127899;58.38623047
71551;DHT22;59367;48.414;9.872;2023-04-06T03:46:59;0.774776459;58.11920166
71551;DHT22;59367;48.414;9.872;2023-04-06T03:48:06;0.774776459;58.25653076
71551;DHT22;59367;48.414;9.872;2023-04-06T03:49:14;0.761425018;58.17565918
71551;DHT22;59367;48.414;9.872;2023-04-06T03:50:21;0.774776459;58.13903809
71551;DHT22;59367;48.414;9.872;2023-04-06T03:51:28;0.774776459;58.00933838
71551;DHT22;59367;48.414;9.872;2023-04-06T03:52:35;0.74540329;58.01544189
71551;DHT22;59367;48.414;9.872;2023-04-06T03:53:42;0.732051849;57.99560547
71551;DHT22;59367;48.414;9.872;2023-04-06T03:54:50;0.732051849;58.02459717
71551;DHT22;59367;48.414;9.872;2023-04-06T03:55:57;0.705348969;58.11920166
71551;DHT22;59367;48.414;9.872;2023-04-06T03:57:04;0.649272919;58.16040039
71551;DHT22;59367;48.414;9.872;2023-04-06T03:58:11;0.649272919;58.3770752
71551;DHT22;59367;48.414;9.872;2023-04-06T03:59:19;0.63325119;58.66088867
71551;DHT22;59367;48.414;9.872;2023-04-06T04:00:26;0.619895935;58.86688232
71551;DHT22;59367;48.414;9.872;2023-04-06T04:01:33;0.606544495;59.0637207
71551;DHT22;59367;48.414;9.872;2023-04-06T04:02:40;0.590522766;59.04083252
71551;DHT22;59367;48.414;9.872;2023-04-06T04:03:47;0.577171326;58.94927979
71551;DHT22;59367;48.414;9.872;2023-04-06T04:04:55;0.577171326;58.86993408
71551;DHT22;59367;48.414;9.872;2023-04-06T04:06:02;0.577171326;58.88061523
71551;DHT22;59367;48.414;9.872;2023-04-06T04:07:09;0.550468445;58.9263916
71551;DHT22;59367;48.414;9.872;2023-04-06T04:08:16;0.563819885;58.70056152
71551;DHT22;59367;48.414;9.872;2023-04-06T04:09:23;0.563819885;58.45489502
71551;DHT22;59367;48.414;9.872;2023-04-06T04:10:31;0.550468445;58.39080811
71551;DHT22;59367;48.414;9.872;2023-04-06T04:11:38;0.563819885;58.32519531
71551;DHT22;59367;48.414;9.872;2023-04-06T04:12:45;0.550468445;58.35266113
71551;DHT22;59367;48.414;9.872;2023-04-06T04:13:53;0.550468445;58.31298828
71551;DHT22;59367;48.414;9.872;2023-04-06T04:15:00;0.550468445;58.41217041
71551;DHT22;59367;48.414;9.872;2023-04-06T04:16:07;0.521095276;58.30841064
71551;DHT22;59367;48.414;9.872;2023-04-06T04:17:15;0.534446716;58.25195313
71551;DHT22;59367;48.414;9.872;2023-04-06T04:18:22;0.507743835;58.19854736
71551;DHT22;59367;48.414;9.872;2023-04-06T04:19:29;0.478370667;58.42132568
71551;DHT22;59367;48.414;9.872;2023-04-06T04:20:36;0.491722107;58.8104248
71551;DHT22;59367;48.414;9.872;2023-04-06T04:21:49;0.478370667;59.00421143
71551;DHT22;59367;48.414;9.872;2023-04-06T04:22:56;0.451667786;59.05914307
71551;DHT22;59367;48.414;9.872;2023-04-06T04:24:03;0.465019226;58.99353027
71551;DHT22;59367;48.414;9.872;2023-04-06T04:25:12;0.451667786;58.99047852
71551;DHT22;59367;48.414;9.872;2023-04-06T04:26:19;0.478370667;58.75701904
71551;DHT22;59367;48.414;9.872;2023-04-06T04:27:26;0.465019226;58.60595703
71551;DHT22;59367;48.414;9.872;2023-04-06T04:28:33;0.491722107;58.72039795
71551;DHT22;59367;48.414;9.872;2023-04-06T04:29:41;0.451667786;58.83331299
71551;DHT22;59367;48.414;9.872;2023-04-06T04:30:48;0.465019226;58.78448486
71551;DHT22;59367;48.414;9.872;2023-04-06T04:31:55;0.451667786;58.76464844
71551;DHT22;59367;48.414;9.872;2023-04-06T04:33:02;0.465019226;58.59680176
71551;DHT22;59367;48.414;9.872;2023-04-06T04:34:09;0.465019226;58.58764648
71551;DHT22;59367;48.414;9.872;2023-04-06T04:35:17;0.465019226;58.56781006
71551;DHT22;59367;48.414;9.872;2023-04-06T04:36:24;0.435646057;58.93859863
71551;DHT22;59367;48.414;9.872;2023-04-06T04:37:31;0.465019226;59.09118652
71551;DHT22;59367;48.414;9.872;2023-04-06T04:38:38;0.435646057;58.94775391
71551;DHT22;59367;48.414;9.872;2023-04-06T04:39:46;0.408943176;58.984375
71551;DHT22;59367;48.414;9.872;2023-04-06T04:40:53;0.422294617;59.10491943
71551;DHT22;59367;48.414;9.872;2023-04-06T04:42:00;0.408943176;59.54742432
71551;DHT22;59367;48.414;9.872;2023-04-06T04:43:07;0.408943176;59.19189453
71551;DHT22;59367;48.414;9.872;2023-04-06T04:44:14;0.422294617;58.96759033
71551;DHT22;59367;48.414;9.872;2023-04-06T04:45:22;0.422294617;58.83789063
71551;DHT22;59367;48.414;9.872;2023-04-06T04:46:29;0.435646057;58.58306885
71551;DHT22;59367;48.414;9.872;2023-04-06T04:47:36;0.408943176;58.62884521
71551;DHT22;59367;48.414;9.872;2023-04-06T04:48:43;0.408943176;58.57849121
71551;DHT22;59367;48.414;9.872;2023-04-06T04:49:50;0.408943176;58.54034424
71551;DHT22;59367;48.414;9.872;2023-04-06T04:50:57;0.422294617;58.40301514
71551;DHT22;59367;48.414;9.872;2023-04-06T04:52:05;0.408943176;58.58764648
71551;DHT22;59367;48.414;9.872;2023-04-06T04:53:12;0.379570007;58.60443115
71551;DHT22;59367;48.414;9.872;2023-04-06T04:54:19;0.395591736;58.65631104
71551;DHT22;59367;48.414;9.872;2023-04-06T04:55:27;0.366214752;58.59069824
71551;DHT22;59367;48.414;9.872;2023-04-06T04:56:34;0.366214752;58.45336914
71551;DHT22;59367;48.414;9.872;2023-04-06T04:57:41;0.336841583;58.45947266
71551;DHT22;59367;48.414;9.872;2023-04-06T04:58:48;0.336841583;58.66851807
71551;DHT22;59367;48.414;9.872;2023-04-06T04:59:55;0.336841583;58.74633789
71551;DHT22;59367;48.414;9.872;2023-04-06T05:01:03;0.366214752;58.76922607
71551;DHT22;59367;48.414;9.872;2023-04-06T05:02:10;0.310138702;58.87908936
71551;DHT22;59367;48.414;9.872;2023-04-06T05:03:21;0.296787262;58.7890625
71551;DHT22;59367;48.414;9.872;2023-04-06T05:04:28;0.310138702;58.78295898
71551;DHT22;59367;48.414;9.872;2023-04-06T05:05:36;0.296787262;58.7600708
71551;DHT22;59367;48.414;9.872;2023-04-06T05:06:43;0.310138702;58.7890625
71551;DHT22;59367;48.414;9.872;2023-04-06T05:07:50;0.296787262;58.79821777
71551;DHT22;59367;48.414;9.872;2023-04-06T05:08:57;0.280765533;59.07287598
71551;DHT22;59367;48.414;9.872;2023-04-06T05:10:05;0.310138702;59.03015137
71551;DHT22;59367;48.414;9.872;2023-04-06T05:11:12;0.280765533;59.02557373
71551;DHT22;59367;48.414;9.872;2023-04-06T05:12:19;0.267414093;58.82415771
71551;DHT22;59367;48.414;9.872;2023-04-06T05:13:29;0.267414093;58.79364014
71551;DHT22;59367;48.414;9.872;2023-04-06T05:14:36;0.267414093;58.73718262
71551;DHT22;59367;48.414;9.872;2023-04-06T05:15:44;0.280765533;58.74633789
71551;DHT22;59367;48.414;9.872;2023-04-06T05:16:51;0.254062653;58.83331299
71551;DHT22;59367;48.414;9.872;2023-04-06T05:17:58;0.280765533;58.72802734
71551;DHT22;59367;48.414;9.872;2023-04-06T05:19:05;0.267414093;58.71582031
71551;DHT22;59367;48.414;9.872;2023-04-06T05:20:14;0.267414093;58.68682861
71551;DHT22;59367;48.414;9.872;2023-04-06T05:21:22;0.254062653;58.67462158
71551;DHT22;59367;48.414;9.872;2023-04-06T05:22:29;0.240711212;58.59222412
71551;DHT22;59367;48.414;9.872;2023-04-06T05:23:36;0.267414093;58.65631104
71551;DHT22;59367;48.414;9.872;2023-04-06T05:24:43;0.254062653;58.85314941
71551;DHT22;59367;48.414;9.872;2023-04-06T05:25:51;0.240711212;59.17663574
71551;DHT22;59367;48.414;9.872;2023-04-06T05:26:58;0.254062653;59.06829834
71551;DHT22;59367;48.414;9.872;2023-04-06T05:28:05;0.267414093;58.99047852
71551;DHT22;59367;48.414;9.872;2023-04-06T05:29:13;0.280765533;58.91571045
71551;DHT22;59367;48.414;9.872;2023-04-06T05:30:21;0.280765533;58.82568359
71551;DHT22;59367;48.414;9.872;2023-04-06T05:31:28;0.296787262;58.9263916
71551;DHT22;59367;48.414;9.872;2023-04-06T05:32:36;0.310138702;59.50164795
71551;DHT22;59367;48.414;9.872;2023-04-06T05:33:43;0.296787262;59.66796875
71551;DHT22;59367;48.414;9.872;2023-04-06T05:34:51;0.310138702;59.39331055
71551;DHT22;59367;48.414;9.872;2023-04-06T05:35:58;0.352863312;59.11407471
71551;DHT22;59367;48.414;9.872;2023-04-06T05:37:05;0.352863312;58.99505615
71551;DHT22;59367;48.414;9.872;2023-04-06T05:38:13;0.352863312;59.39178467
71551;DHT22;59367;48.414;9.872;2023-04-06T05:39:20;0.395591736;59.19036865
71551;DHT22;59367;48.414;9.872;2023-04-06T05:40:28;0.408943176;59.18121338
71551;DHT22;59367;48.414;9.872;2023-04-06T05:41:35;0.422294617;59.26055908
71551;DHT22;59367;48.414;9.872;2023-04-06T05:42:43;0.435646057;59.4619751
71551;DHT22;59367;48.414;9.872;2023-04-06T05:43:50;0.451667786;59.77172852
71551;DHT22;59367;48.414;9.872;2023-04-06T05:44:58;0.465019226;59.48791504
71551;DHT22;59367;48.414;9.872;2023-04-06T05:46:07;0.491722107;59.24224854
71551;DHT22;59367;48.414;9.872;2023-04-06T05:47:14;0.521095276;59.18731689
71551;DHT22;59367;48.414;9.872;2023-04-06T05:48:21;0.521095276;59.17816162
71551;DHT22;59367;48.414;9.872;2023-04-06T05:49:28;0.534446716;59.35058594
71551;DHT22;59367;48.414;9.872;2023-04-06T05:50:35;0.534446716;59.24072266
71551;DHT22;59367;48.414;9.872;2023-04-06T05:51:43;0.550468445;59.17358398
71551;DHT22;59367;48.414;9.872;2023-04-06T05:52:50;0.606544495;59.18121338
71551;DHT22;59367;48.414;9.872;2023-04-06T05:53:57;0.606544495;59.04388428
71551;DHT22;59367;48.414;9.872;2023-04-06T05:55:04;0.619895935;59.04388428
71551;DHT22;59367;48.414;9.872;2023-04-06T05:56:12;0.619895935;58.95690918
71551;DHT22;59367;48.414;9.872;2023-04-06T05:57:19;0.649272919;58.91113281